createdAt,value
2018-11-20T00:02:09.508Z,100528.23
2018-11-20T00:05:13.268Z,100507.19
2018-11-20T00:08:19.525Z,100514.39
2018-11-20T00:11:13.498Z,100504.20
2018-11-20T00:13:51.569Z,100500.70
2018-11-20T00:16:30.907Z,100500.24
2018-11-20T00:19:19.301Z,100491.38
2018-11-20T00:22:06.398Z,100491.50
2018-11-20T00:24:57.660Z,100491.60
2018-11-20T00:27:52.159Z,100482.74
2018-11-20T00:30:40.849Z,100473.91
2018-11-20T00:33:37.565Z,100478.78
2018-11-20T00:36:32.046Z,100473.17
2018-11-20T00:39:20.462Z,100474.47
2018-11-20T00:42:11.492Z,100475.43
2018-11-20T00:45:14.995Z,100483.57
2018-11-20T00:48:12.409Z,100475.08
2018-11-20T00:51:09.992Z,100472.67
2018-11-20T00:54:01.445Z,100467.83
2018-11-20T00:56:42.492Z,100472.88
2018-11-20T00:59:23.933Z,100471.39
2018-11-20T01:02:12.908Z,100475.86
2018-11-20T01:04:57.834Z,100468.55
2018-11-20T01:07:45.407Z,100461.76
2018-11-20T01:10:39.519Z,100460.94
2018-11-20T01:13:26.506Z,100459.66
2018-11-20T01:16:12.799Z,100470.97
2018-11-20T01:19:04.178Z,100464.59
2018-11-20T01:22:10.833Z,100463.29
2018-11-20T01:25:03.698Z,100462.52
2018-11-20T01:28:00.495Z,100462.06
2018-11-20T01:30:47.583Z,100454.46
2018-11-20T01:33:34.829Z,100450.08
2018-11-20T01:36:13.193Z,100450.86
2018-11-20T01:39:01.601Z,100451.78
2018-11-20T01:41:52.814Z,100441.15
2018-11-20T01:44:47.135Z,100438.05
2018-11-20T01:47:33.873Z,100446.43
2018-11-20T01:50:21.474Z,100435.69
2018-11-20T01:53:28.949Z,100430.24
2018-11-20T01:56:20.292Z,100424.98
2018-11-20T01:59:00.860Z,100426.34
2018-11-20T02:02:25.360Z,100422.05
2018-11-20T02:05:05.375Z,100421.39
2018-11-20T02:07:52.945Z,100411.88
2018-11-20T02:10:40.586Z,100406.43
2018-11-20T02:14:06.617Z,100401.81
2018-11-20T02:17:32.641Z,100400.16
2018-11-20T02:20:20.285Z,100403.09
2018-11-20T02:23:08.172Z,100401.91
2018-11-20T02:25:56.730Z,100406.99
2018-11-20T02:28:44.427Z,100397.80
2018-11-20T02:31:32.120Z,100397.23
2018-11-20T02:34:20.743Z,100402.32
2018-11-20T02:37:08.036Z,100390.39
2018-11-20T02:39:57.207Z,100400.37
2018-11-20T02:42:45.437Z,100394.56
2018-11-20T02:45:33.420Z,100388.28
2018-11-20T02:48:21.086Z,100386.48
2018-11-20T02:51:04.346Z,100390.41
2018-11-20T02:53:51.900Z,100385.20
2018-11-20T02:56:39.548Z,100382.48
2018-11-20T02:59:26.838Z,100379.84
2018-11-20T03:02:14.575Z,100375.80
2018-11-20T03:05:01.871Z,100376.16
2018-11-20T03:07:50.272Z,100364.02
2018-11-20T03:10:38.403Z,100362.43
2018-11-20T03:13:26.019Z,100363.46
2018-11-20T03:16:13.354Z,100357.71
2018-11-20T03:19:00.682Z,100345.83
2018-11-20T03:21:47.959Z,100347.44
2018-11-20T03:24:36.188Z,100329.69
2018-11-20T03:27:23.542Z,100339.03
2018-11-20T03:30:49.584Z,100318.44
2018-11-20T03:33:37.565Z,100326.64
2018-11-20T03:36:24.871Z,100323.33
2018-11-20T03:39:13.274Z,100322.56
2018-11-20T03:42:00.633Z,100315.46
2018-11-20T03:44:49.218Z,100323.73
2018-11-20T03:47:37.672Z,100315.98
2018-11-20T03:50:25.293Z,100315.63
2018-11-20T03:53:32.809Z,100314.23
2018-11-20T03:56:20.389Z,100310.02
2018-11-20T03:59:08.377Z,100306.94
2018-11-20T04:01:56.938Z,100306.01
2018-11-20T04:04:44.815Z,100302.97
2018-11-20T04:07:32.455Z,100303.91
2018-11-20T04:10:20.600Z,100302.94
2018-11-20T04:13:08.152Z,100305.34
2018-11-20T04:15:56.816Z,100298.15
2018-11-20T04:18:44.902Z,100296.45
2018-11-20T04:21:32.533Z,100301.70
2018-11-20T04:24:20.429Z,100294.66
2018-11-20T04:26:59.912Z,100291.98
2018-11-20T04:30:06.650Z,100292.27
2018-11-20T04:32:44.547Z,100287.48
2018-11-20T04:35:32.694Z,100284.39
2018-11-20T04:38:20.818Z,100281.20
2018-11-20T04:41:08.544Z,100275.14
2018-11-20T04:43:56.376Z,100285.23
2018-11-20T04:46:44.945Z,100281.88
2018-11-20T04:49:32.565Z,100282.84
2018-11-20T04:52:23.675Z,100273.84
2018-11-20T04:55:11.295Z,100267.73
2018-11-20T04:57:59.354Z,100267.80
2018-11-20T05:00:47.485Z,100256.42
2018-11-20T05:03:36.043Z,100250.41
2018-11-20T05:06:23.387Z,100248.85
2018-11-20T05:09:10.990Z,100253.30
2018-11-20T05:11:59.536Z,100245.33
2018-11-20T05:14:46.860Z,100253.39
2018-11-20T05:17:34.798Z,100247.16
2018-11-20T05:20:22.471Z,100241.95
2018-11-20T05:23:10.662Z,100238.53
2018-11-20T05:25:59.245Z,100244.77
2018-11-20T05:28:47.428Z,100237.14
2018-11-20T05:31:34.999Z,100233.67
2018-11-20T05:34:22.598Z,100231.69
2018-11-20T05:37:10.487Z,100231.87
2018-11-20T05:39:58.155Z,100224.41
2018-11-20T05:42:46.187Z,100230.02
2018-11-20T05:45:53.193Z,100234.95
2018-11-20T05:48:40.535Z,100233.75
2018-11-20T05:51:28.660Z,100237.00
2018-11-20T05:54:11.770Z,100233.94
2018-11-20T05:56:53.149Z,100231.54
2018-11-20T05:59:50.047Z,100221.50
2018-11-20T06:02:36.691Z,100232.45
2018-11-20T06:05:23.242Z,100226.82
2018-11-20T06:08:09.977Z,100225.81
2018-11-20T06:10:55.505Z,100222.16
2018-11-20T06:13:40.083Z,100234.36
2018-11-20T06:16:36.587Z,100226.19
2018-11-20T06:19:27.043Z,100231.33
2018-11-20T06:22:04.302Z,100229.44
2018-11-20T06:24:51.274Z,100227.05
2018-11-20T06:27:39.436Z,100220.50
2018-11-20T06:30:45.695Z,100222.91
2018-11-20T06:33:31.723Z,100219.94
2018-11-20T06:36:25.091Z,100218.61
2018-11-20T06:39:12.557Z,100222.59
2018-11-20T06:41:54.362Z,100222.46
2018-11-20T06:44:51.996Z,100208.70
2018-11-20T06:47:39.053Z,100219.58
2018-11-20T06:50:37.887Z,100214.84
2018-11-20T06:53:25.626Z,100216.81
2018-11-20T06:56:19.350Z,100213.52
2018-11-20T06:59:07.025Z,100224.94
2018-11-20T07:02:00.056Z,100219.28
2018-11-20T07:04:46.428Z,100226.95
2018-11-20T07:07:45.817Z,100225.91
2018-11-20T07:10:31.582Z,100218.12
2018-11-20T07:13:39.565Z,100222.09
2018-11-20T07:16:55.914Z,100225.78
2018-11-20T07:19:45.754Z,100224.42
2018-11-20T07:22:40.479Z,100218.23
2018-11-20T07:25:34.676Z,100214.46
2018-11-20T07:28:37.118Z,100216.33
2018-11-20T07:31:31.548Z,100217.61
2018-11-20T07:34:31.310Z,100215.05
2018-11-20T07:37:10.065Z,100224.45
2018-11-20T07:40:09.725Z,100225.12
2018-11-20T07:43:13.310Z,100222.17
2018-11-20T07:46:13.933Z,100224.70
2018-11-20T07:49:00.343Z,100219.19
2018-11-20T07:51:47.556Z,100214.27
2018-11-20T07:54:34.336Z,100208.48
2018-11-20T07:57:22.557Z,100208.64
2018-11-20T08:00:09.096Z,100208.06
2018-11-20T08:02:56.998Z,100208.29
2018-11-20T08:05:39.117Z,100199.78
2018-11-20T08:08:26.856Z,100201.36
2018-11-20T08:11:27.048Z,100198.75
2018-11-20T08:14:11.320Z,100206.42
2018-11-20T08:16:47.979Z,100205.45
2018-11-20T08:19:41.358Z,100187.50
2018-11-20T08:22:37.770Z,100192.79
2018-11-20T08:25:24.026Z,100192.28
2018-11-20T08:28:17.565Z,100189.69
2018-11-20T08:31:09.094Z,100192.91
2018-11-20T08:34:00.179Z,100187.84
2018-11-20T08:36:56.975Z,100186.73
2018-11-20T08:39:50.882Z,100192.19
2018-11-20T08:42:37.399Z,100197.37
2018-11-20T08:45:23.640Z,100193.31
2018-11-20T08:48:17.559Z,100202.36
2018-11-20T08:51:17.692Z,100198.27
2018-11-20T08:54:03.944Z,100194.45
2018-11-20T08:56:54.638Z,100198.91
2018-11-20T08:59:45.490Z,100196.37
2018-11-20T09:02:32.045Z,100197.45
2018-11-20T09:05:19.902Z,100193.20
2018-11-20T09:08:06.535Z,100191.88
2018-11-20T09:10:54.245Z,100197.21
2018-11-20T09:13:51.788Z,100190.59
2018-11-20T09:16:38.135Z,100189.04
2018-11-20T09:19:24.422Z,100194.63
2018-11-20T09:22:03.527Z,100183.06
2018-11-20T09:24:53.583Z,100188.72
2018-11-20T09:27:46.643Z,100188.58
2018-11-20T09:30:39.881Z,100186.57
2018-11-20T09:33:42.499Z,100177.59
2018-11-20T09:36:29.305Z,100169.14
2018-11-20T09:39:20.321Z,100169.23
2018-11-20T09:42:07.422Z,100181.08
2018-11-20T09:45:18.041Z,100177.19
2018-11-20T09:48:04.289Z,100184.16
2018-11-20T09:50:51.189Z,100175.02
2018-11-20T09:53:44.877Z,100174.51
2018-11-20T09:56:27.393Z,100174.84
2018-11-20T09:59:33.759Z,100162.03
2018-11-20T10:02:24.237Z,100166.70
2018-11-20T10:05:11.958Z,100156.94
2018-11-20T10:07:49.733Z,100156.88
2018-11-20T10:10:58.181Z,100162.42
2018-11-20T10:13:52.003Z,100160.62
2018-11-20T10:16:42.415Z,100150.87
2018-11-20T10:19:29.293Z,100157.53
2018-11-20T10:22:16.097Z,100143.56
2018-11-20T10:24:56.294Z,100147.32
2018-11-20T10:27:40.078Z,100149.31
2018-11-20T10:30:26.639Z,100139.52
2018-11-20T10:33:25.933Z,100137.07
2018-11-20T10:36:11.938Z,100135.91
2018-11-20T10:39:08.374Z,100129.47
2018-11-20T10:41:55.301Z,100130.41
2018-11-20T10:44:51.984Z,100133.23
2018-11-20T10:47:38.292Z,100126.19
2018-11-20T10:50:25.517Z,100128.86
2018-11-20T10:53:22.964Z,100121.83
2018-11-20T10:56:16.375Z,100124.71
2018-11-20T10:59:10.729Z,100121.39
2018-11-20T11:01:57.596Z,100123.09
2018-11-20T11:04:43.969Z,100122.36
2018-11-20T11:07:47.886Z,100116.17
2018-11-20T11:10:36.251Z,100111.03
2018-11-20T11:13:23.290Z,100106.92
2018-11-20T11:16:14.752Z,100100.44
2018-11-20T11:19:00.880Z,100092.30
2018-11-20T11:21:54.640Z,100089.80
2018-11-20T11:24:48.150Z,100087.23
2018-11-20T11:27:34.407Z,100084.76
2018-11-20T11:30:20.042Z,100078.60
2018-11-20T11:33:10.475Z,100082.48
2018-11-20T11:35:56.629Z,100075.22
2018-11-20T11:38:42.432Z,100081.16
2018-11-20T11:41:27.068Z,100081.77
2018-11-20T11:44:14.222Z,100079.52
2018-11-20T11:47:01.273Z,100085.25
2018-11-20T11:49:49.038Z,100078.26
2018-11-20T11:52:39.501Z,100083.14
2018-11-20T11:55:27.846Z,100084.67
2018-11-20T11:58:18.756Z,100077.02
2018-11-20T12:01:03.312Z,100082.02
2018-11-20T12:03:50.680Z,100088.64
2018-11-20T12:06:38.505Z,100080.08
2018-11-20T12:09:28.393Z,100076.10
2018-11-20T12:12:16.008Z,100069.35
2018-11-20T12:15:04.157Z,100067.20
2018-11-20T12:17:47.447Z,100072.34
2018-11-20T12:20:35.736Z,100068.50
2018-11-20T12:23:42.710Z,100065.39
2018-11-20T12:26:30.602Z,100068.50
2018-11-20T12:29:18.218Z,100053.38
2018-11-20T12:32:06.390Z,100062.06
2018-11-20T12:34:54.401Z,100067.18
2018-11-20T12:37:43.644Z,100063.75
2018-11-20T12:40:28.707Z,100069.61
2018-11-20T12:43:18.241Z,100059.75
2018-11-20T12:49:06.899Z,100063.60
2018-11-20T12:51:53.588Z,100066.73
2018-11-20T12:54:41.975Z,100051.17
2018-11-20T12:57:17.937Z,100055.34
2018-11-20T13:00:05.547Z,100058.92
2018-11-20T13:02:53.748Z,100059.30
2018-11-20T13:05:42.343Z,100053.72
2018-11-20T13:08:31.162Z,100050.38
2018-11-20T13:11:17.609Z,100045.23
2018-11-20T13:14:06.325Z,100049.58
2018-11-20T13:17:13.668Z,100050.01
2018-11-20T13:20:03.896Z,100057.84
2018-11-20T13:23:08.798Z,100046.41
2018-11-20T13:25:56.186Z,100050.46
2018-11-20T13:28:44.398Z,100045.64
2018-11-20T13:31:32.325Z,100045.66
2018-11-20T13:34:20.984Z,100043.08
2018-11-20T13:37:09.933Z,100049.05
2018-11-20T13:40:15.623Z,100041.36
2018-11-20T13:43:04.698Z,100037.98
2018-11-20T13:45:43.764Z,100035.75
2018-11-20T13:48:30.049Z,100031.47
2018-11-20T13:51:36.808Z,100027.53
2018-11-20T13:54:24.652Z,100029.65
2018-11-20T13:57:12.619Z,100020.55
2018-11-20T14:00:01.540Z,100024.91
2018-11-20T14:02:49.004Z,100023.55
2018-11-20T14:05:36.704Z,100029.16
2018-11-20T14:08:31.903Z,100022.36
2018-11-20T14:11:20.104Z,100020.06
2018-11-20T14:14:07.978Z,100019.69
2018-11-20T14:16:55.633Z,100025.61
2018-11-20T14:19:43.423Z,100030.48
2018-11-20T14:25:48.287Z,100031.80
2018-11-20T14:28:36.340Z,100038.14
2018-11-20T14:31:23.741Z,100034.84
2018-11-20T14:34:11.307Z,100039.83
2018-11-20T14:36:58.964Z,100031.53
2018-11-20T14:40:06.052Z,100036.52
2018-11-20T14:43:13.610Z,100035.00
2018-11-20T14:46:01.783Z,100041.39
2018-11-20T14:48:49.956Z,100054.73
2018-11-20T14:51:27.733Z,100069.55
2018-11-20T14:54:15.904Z,100051.52
2018-11-20T14:57:03.516Z,100054.13
2018-11-20T14:59:50.837Z,100055.38
2018-11-20T15:02:38.462Z,100049.77
2018-11-20T15:05:26.654Z,100045.97
2018-11-20T15:08:13.944Z,100052.70
2018-11-20T15:11:01.533Z,100047.19
2018-11-20T15:13:49.141Z,100055.80
2018-11-20T15:16:25.466Z,100058.72
2018-11-20T15:19:13.569Z,100050.52
2018-11-20T15:22:00.951Z,100055.52
2018-11-20T15:24:38.758Z,100061.14
2018-11-20T15:27:26.353Z,100049.97
2018-11-20T15:30:14.262Z,100047.50
2018-11-20T15:33:01.959Z,100044.09
2018-11-20T15:35:49.282Z,100055.67
2018-11-20T15:38:37.305Z,100057.91
2018-11-20T15:41:25.448Z,100062.73
2018-11-20T15:44:14.000Z,100059.21
2018-11-20T15:47:02.222Z,100059.40
2018-11-20T15:49:51.979Z,100056.19
2018-11-20T15:52:39.398Z,100052.78
2018-11-20T15:55:19.623Z,100054.91
2018-11-20T15:58:06.954Z,100057.11
2018-11-20T16:00:47.892Z,100068.96
2018-11-20T16:03:35.237Z,100064.14
2018-11-20T16:06:22.817Z,100064.69
2018-11-20T16:09:10.604Z,100070.45
2018-11-20T16:11:51.332Z,100065.64
2018-11-20T16:14:39.051Z,100072.82
2018-11-20T16:17:26.680Z,100072.41
2018-11-20T16:20:14.675Z,100065.28
2018-11-20T16:23:02.020Z,100061.48
2018-11-20T16:25:49.780Z,100073.84
2018-11-20T16:28:37.524Z,100069.92
2018-11-20T16:31:24.860Z,100067.07
2018-11-20T16:34:12.570Z,100057.00
2018-11-20T16:37:00.176Z,100063.78
2018-11-20T16:39:47.814Z,100063.84
2018-11-20T16:42:36.490Z,100061.48
2018-11-20T16:45:24.209Z,100059.33
2018-11-20T16:48:12.100Z,100064.30
2018-11-20T16:51:00.260Z,100062.86
2018-11-20T16:53:49.218Z,100066.20
2018-11-20T16:56:36.850Z,100082.12
2018-11-20T16:59:24.889Z,100088.83
2018-11-20T17:02:12.536Z,100097.05
2018-11-20T17:05:00.501Z,100100.49
2018-11-20T17:07:48.102Z,100110.12
2018-11-20T17:10:35.527Z,100108.57
2018-11-20T17:13:24.012Z,100106.23
2018-11-20T17:16:11.996Z,100110.79
2018-11-20T17:19:00.113Z,100113.75
2018-11-20T17:21:47.472Z,100106.83
2018-11-20T17:24:35.446Z,100106.54
2018-11-20T17:27:22.770Z,100111.23
2018-11-20T17:30:02.727Z,100099.77
2018-11-20T17:32:50.078Z,100120.34
2018-11-20T17:35:38.341Z,100115.73
2018-11-20T17:38:25.813Z,100110.86
2018-11-20T17:41:11.061Z,100120.94
2018-11-20T17:43:58.671Z,100118.82
2018-11-20T17:46:46.561Z,100120.83
2018-11-20T17:49:34.970Z,100119.23
2018-11-20T17:52:22.411Z,100120.41
2018-11-20T17:55:10.268Z,100116.25
2018-11-20T17:57:53.367Z,100112.70
2018-11-20T18:00:37.478Z,100112.11
2018-11-20T18:03:25.786Z,100124.80
2018-11-20T18:06:13.470Z,100131.11
2018-11-20T18:09:00.833Z,100119.30
2018-11-20T18:11:48.194Z,100115.75
2018-11-20T18:14:36.321Z,100111.28
2018-11-20T18:17:24.077Z,100107.80
2018-11-20T18:20:01.403Z,100119.00
2018-11-20T18:22:49.707Z,100145.52
2018-11-20T18:25:37.383Z,100151.87
2018-11-20T18:28:24.687Z,100156.48
2018-11-20T18:31:12.296Z,100149.75
2018-11-20T18:34:01.283Z,100152.66
2018-11-20T18:36:48.882Z,100138.94
2018-11-20T18:39:29.895Z,100144.98
2018-11-20T18:42:17.873Z,100137.31
2018-11-20T18:45:06.435Z,100122.11
2018-11-20T18:47:53.375Z,100136.56
2018-11-20T18:50:41.559Z,100123.33
2018-11-20T18:53:29.667Z,100124.92
2018-11-20T18:56:17.016Z,100116.38
2018-11-20T18:58:53.253Z,100119.25
2018-11-20T19:01:40.806Z,100137.65
2018-11-20T19:04:28.514Z,100128.81
2018-11-20T19:07:14.704Z,100144.98
2018-11-20T19:10:02.008Z,100127.94
2018-11-20T19:12:49.827Z,100138.34
2018-11-20T19:15:37.113Z,100173.05
2018-11-20T19:18:24.498Z,100175.45
2018-11-20T19:21:11.829Z,100152.23
2018-11-20T19:23:56.705Z,100162.08
2018-11-20T19:26:44.359Z,100180.46
2018-11-20T19:29:32.397Z,100188.02
2018-11-20T19:32:20.489Z,100180.84
2018-11-20T19:35:08.805Z,100199.46
2018-11-20T19:37:57.348Z,100203.77
2018-11-20T19:40:44.643Z,100213.72
2018-11-20T19:43:33.044Z,100214.05
2018-11-20T19:46:20.764Z,100214.09
2018-11-20T19:49:27.786Z,100212.30
2018-11-20T19:52:15.281Z,100204.77
2018-11-20T19:55:22.317Z,100215.88
2018-11-20T19:58:09.646Z,100214.05
2018-11-20T20:00:57.365Z,100226.25
2018-11-20T20:03:44.958Z,100201.41
2018-11-20T20:06:32.908Z,100205.50
2018-11-20T20:09:21.348Z,100207.41
2018-11-20T20:12:05.465Z,100204.77
2018-11-20T20:14:53.654Z,100202.23
2018-11-20T20:17:41.394Z,100200.53
2018-11-20T20:20:32.341Z,100203.72
2018-11-20T20:23:20.532Z,100184.69
2018-11-20T20:26:09.331Z,100192.64
2018-11-20T20:28:57.503Z,100206.09
2018-11-20T20:31:45.160Z,100206.55
2018-11-20T20:34:33.213Z,100215.25
2018-11-20T20:37:20.458Z,100215.70
2018-11-20T20:40:27.532Z,100210.06
2018-11-20T20:43:15.437Z,100220.06
2018-11-20T20:46:03.080Z,100227.28
2018-11-20T20:48:51.550Z,100225.50
2018-11-20T20:51:38.869Z,100235.41
2018-11-20T20:54:27.027Z,100238.09
2018-11-20T20:57:14.649Z,100232.17
2018-11-20T21:00:02.676Z,100258.30
2018-11-20T21:02:50.453Z,100271.48
2018-11-20T21:05:39.120Z,100274.85
2018-11-20T21:08:27.663Z,100277.05
2018-11-20T21:11:15.557Z,100278.30
2018-11-20T21:14:03.195Z,100286.84
2018-11-20T21:16:50.527Z,100283.73
2018-11-20T21:19:30.173Z,100285.02
2018-11-20T21:22:17.880Z,100287.38
2018-11-20T21:25:06.500Z,100279.50
2018-11-20T21:28:12.366Z,100280.70
2018-11-20T21:31:00.271Z,100280.03
2018-11-20T21:33:48.035Z,100292.40
2018-11-20T21:36:25.141Z,100298.13
2018-11-20T21:39:13.286Z,100302.85
2018-11-20T21:42:00.574Z,100312.81
2018-11-20T21:44:46.228Z,100312.84
2018-11-20T21:47:33.858Z,100318.79
2018-11-20T21:50:22.069Z,100320.41
2018-11-20T21:53:10.911Z,100320.78
2018-11-20T21:55:58.602Z,100329.05
2018-11-20T21:58:37.937Z,100318.37
2018-11-20T22:01:27.529Z,100319.08
2018-11-20T22:04:15.991Z,100313.60
2018-11-20T22:07:22.708Z,100313.98
2018-11-20T22:10:11.231Z,100318.75
2018-11-20T22:12:59.141Z,100324.60
2018-11-20T22:15:46.464Z,100329.75
2018-11-20T22:18:34.019Z,100343.81
2018-11-20T22:21:22.680Z,100357.51
2018-11-20T22:24:11.777Z,100355.39
2018-11-20T22:26:59.131Z,100356.30
2018-11-20T22:29:46.420Z,100355.69
2018-11-20T22:32:34.888Z,100357.41
2018-11-20T22:35:22.179Z,100353.66
2018-11-20T22:38:10.654Z,100355.39
2018-11-20T22:40:58.734Z,100344.92
2018-11-20T22:43:46.381Z,100349.55
2018-11-20T22:46:34.117Z,100353.36
2018-11-20T22:49:22.816Z,100361.21
2018-11-20T22:52:10.933Z,100351.20
2018-11-20T22:54:58.581Z,100356.72
2018-11-20T22:57:47.230Z,100350.90
2018-11-20T23:00:34.520Z,100347.43
2018-11-20T23:03:22.290Z,100356.44
2018-11-20T23:06:08.559Z,100349.42
2018-11-20T23:08:37.250Z,100352.87
2018-11-20T23:11:06.679Z,100353.11
2018-11-20T23:13:35.701Z,100360.83
2018-11-20T23:16:05.564Z,100345.25
2018-11-20T23:18:34.711Z,100341.91
2018-11-20T23:21:03.571Z,100348.01
2018-11-20T23:23:32.099Z,100345.71
2018-11-20T23:26:00.896Z,100338.59
2018-11-20T23:28:30.568Z,100342.53
2018-11-20T23:30:59.977Z,100341.44
2018-11-20T23:33:29.063Z,100336.57
2018-11-20T23:35:57.411Z,100337.39
2018-11-20T23:38:26.506Z,100333.84
2018-11-20T23:40:56.103Z,100336.33
2018-11-20T23:43:25.479Z,100343.53
2018-11-20T23:45:54.121Z,100353.95
2018-11-20T23:48:23.403Z,100363.72
2018-11-20T23:50:52.368Z,100367.42
2018-11-20T23:53:22.349Z,100358.38
2018-11-20T23:55:51.458Z,100360.23
2018-11-20T23:58:20.616Z,100358.27
